createdAt,value
2022-11-09T00:02:08.081Z,2.10
2022-11-09T00:04:55.484Z,2.53
2022-11-09T00:07:49.135Z,1.98
2022-11-09T00:13:23.814Z,2.00
2022-11-09T00:16:14.173Z,1.50
2022-11-09T00:19:05.854Z,1.75
2022-11-09T00:21:53.563Z,2.15
2022-11-09T00:24:40.754Z,2.03
2022-11-09T00:27:36.656Z,1.65
2022-11-09T00:30:23.691Z,1.70
2022-11-09T00:33:12.379Z,2.17
2022-11-09T00:36:12.549Z,1.80
2022-11-09T00:39:05.984Z,1.80
2022-11-09T00:41:53.305Z,1.50
2022-11-09T00:44:40.619Z,2.30
2022-11-09T00:47:29.312Z,2.35
2022-11-09T00:50:22.476Z,2.05
2022-11-09T00:53:12.180Z,1.95
2022-11-09T00:56:01.653Z,2.20
2022-11-09T00:58:55.955Z,2.13
2022-11-09T01:01:43.209Z,2.10
2022-11-09T01:04:30.479Z,1.92
2022-11-09T01:07:18.955Z,2.13
2022-11-09T01:10:08.941Z,2.70
2022-11-09T01:12:55.963Z,2.60
2022-11-09T01:15:50.226Z,2.42
2022-11-09T01:18:38.593Z,2.20
2022-11-09T01:21:27.545Z,2.10
2022-11-09T01:24:14.932Z,2.08
2022-11-09T01:27:02.468Z,1.35
2022-11-09T01:29:53.536Z,1.88
2022-11-09T01:32:40.753Z,1.90
2022-11-09T01:35:28.019Z,2.03
2022-11-09T01:38:15.159Z,2.30
2022-11-09T01:41:02.553Z,1.85
2022-11-09T01:44:06.621Z,2.00
2022-11-09T01:47:23.882Z,2.05
2022-11-09T01:50:18.799Z,1.63
2022-11-09T01:53:17.303Z,2.38
2022-11-09T01:56:10.051Z,1.55
2022-11-09T01:59:04.712Z,1.65
2022-11-09T02:01:53.403Z,2.30
2022-11-09T02:04:47.535Z,2.42
2022-11-09T02:07:37.603Z,1.95
2022-11-09T02:10:27.968Z,2.10
2022-11-09T02:13:19.967Z,1.50
2022-11-09T02:16:14.185Z,2.13
2022-11-09T02:19:01.857Z,2.72
2022-11-09T02:21:54.363Z,1.55
2022-11-09T02:24:46.899Z,1.52
2022-11-09T02:27:35.267Z,1.70
2022-11-09T02:30:22.869Z,2.05
2022-11-09T02:33:10.333Z,1.45
2022-11-09T02:35:57.806Z,1.60
2022-11-09T02:38:48.855Z,1.35
2022-11-09T02:41:57.356Z,1.25
2022-11-09T02:44:54.322Z,1.63
2022-11-09T02:47:42.190Z,1.43
2022-11-09T02:50:29.864Z,1.65
2022-11-09T02:53:17.549Z,2.08
2022-11-09T02:56:07.727Z,1.85
2022-11-09T02:58:55.473Z,1.80
2022-11-09T03:01:46.617Z,1.77
2022-11-09T03:04:33.919Z,1.05
2022-11-09T03:07:24.854Z,2.00
2022-11-09T03:10:12.374Z,1.80
2022-11-09T03:12:59.513Z,1.85
2022-11-09T03:15:46.862Z,1.73
2022-11-09T03:18:34.057Z,1.77
2022-11-09T03:21:22.311Z,1.90
2022-11-09T03:24:12.079Z,1.90
2022-11-09T03:27:01.199Z,1.80
2022-11-09T04:09:26.259Z,1.88
2022-11-09T04:12:13.939Z,1.60
2022-11-09T04:15:01.412Z,2.00
2022-11-09T04:17:59.039Z,1.77
2022-11-09T04:20:47.635Z,1.63
2022-11-09T04:23:35.833Z,2.15
2022-11-09T04:26:23.356Z,1.70
2022-11-09T04:29:18.896Z,2.63
2022-11-09T04:32:08.356Z,1.42
2022-11-09T04:35:07.910Z,1.75
2022-11-09T04:38:03.271Z,2.13
2022-11-09T04:40:50.945Z,2.00
2022-11-09T04:43:18.494Z,2.00
2022-11-09T04:45:49.174Z,2.38
2022-11-09T04:48:18.439Z,1.83
2022-11-09T04:50:45.906Z,2.28
2022-11-09T04:53:16.214Z,1.70
2022-11-09T04:55:44.057Z,2.17
2022-11-09T04:58:14.305Z,2.17
2022-11-09T05:00:53.299Z,1.95
2022-11-09T05:03:40.989Z,2.20
2022-11-09T05:06:27.279Z,2.35
2022-11-09T05:08:58.063Z,1.95
2022-11-09T05:11:27.286Z,2.25
2022-11-09T05:13:54.643Z,1.88
2022-11-09T05:16:24.932Z,2.30
2022-11-09T05:18:52.324Z,2.13
2022-11-09T05:21:21.837Z,2.17
2022-11-09T05:24:03.263Z,1.83
2022-11-09T05:26:33.007Z,2.05
2022-11-09T05:29:23.899Z,2.28
2022-11-09T05:31:54.389Z,2.00
2022-11-09T05:34:20.859Z,2.05
2022-11-09T05:36:47.537Z,1.90
2022-11-09T05:39:13.965Z,2.05
2022-11-09T05:41:40.783Z,1.83
2022-11-09T05:44:07.406Z,2.08
2022-11-09T05:46:36.336Z,2.13
2022-11-09T05:49:03.242Z,1.73
2022-11-09T05:51:29.710Z,1.88
2022-11-09T05:53:56.187Z,1.65
2022-11-09T05:56:25.140Z,2.10
2022-11-09T05:58:51.695Z,1.67
2022-11-09T06:01:18.985Z,2.00
2022-11-09T06:03:45.578Z,2.20
2022-11-09T06:06:15.018Z,1.73
2022-11-09T06:08:46.526Z,2.20
2022-11-09T06:11:18.461Z,2.00
2022-11-09T06:13:50.295Z,1.80
2022-11-09T06:16:16.787Z,1.40
2022-11-09T06:18:43.251Z,1.92
2022-11-09T06:21:09.881Z,1.83
2022-11-09T06:23:36.458Z,1.23
2022-11-09T06:26:11.863Z,1.90
2022-11-09T06:28:39.630Z,2.60
2022-11-09T06:31:11.871Z,2.20
2022-11-09T06:33:40.702Z,1.80
2022-11-09T06:36:07.945Z,2.28
2022-11-09T06:38:34.395Z,2.08
2022-11-09T06:41:01.067Z,2.75
2022-11-09T06:43:28.182Z,2.35
2022-11-09T06:45:55.067Z,2.50
2022-11-09T06:48:22.200Z,2.97
2022-11-09T06:50:48.987Z,2.22
2022-11-09T06:53:18.119Z,1.83
2022-11-09T06:55:50.787Z,2.08
2022-11-09T06:58:20.702Z,2.50
2022-11-09T07:00:52.231Z,1.85
2022-11-09T07:03:20.506Z,2.13
2022-11-09T07:05:48.606Z,2.47
2022-11-09T07:08:18.239Z,2.17
2022-11-09T07:10:45.758Z,3.17
2022-11-09T07:13:12.777Z,2.45
2022-11-09T07:15:42.217Z,2.00
2022-11-09T07:18:11.907Z,2.38
2022-11-09T07:20:38.455Z,2.40
2022-11-09T07:23:04.919Z,2.38
2022-11-09T07:25:32.083Z,1.75
2022-11-09T07:28:05.680Z,2.28
2022-11-09T07:30:32.345Z,2.08
2022-11-09T07:33:09.300Z,1.55
2022-11-09T07:35:46.763Z,1.60
2022-11-09T07:38:13.803Z,2.15
2022-11-09T07:40:40.750Z,2.67
2022-11-09T07:43:10.249Z,2.55
2022-11-09T07:45:38.603Z,2.45
2022-11-09T07:48:08.307Z,1.83
2022-11-09T07:50:36.504Z,2.20
2022-11-09T07:53:03.799Z,2.17
2022-11-09T07:55:34.293Z,2.70
2022-11-09T07:58:13.883Z,2.22
2022-11-09T08:00:41.881Z,2.65
2022-11-09T08:03:09.078Z,2.40
2022-11-09T08:05:36.173Z,2.85
2022-11-09T08:08:06.701Z,2.42
2022-11-09T08:10:34.914Z,2.38
2022-11-09T08:13:04.175Z,1.98
2022-11-09T08:15:31.529Z,1.38
2022-11-09T08:18:04.086Z,2.58
2022-11-09T08:20:31.141Z,2.42
2022-11-09T08:23:03.295Z,1.58
2022-11-09T08:25:30.919Z,2.95
2022-11-09T08:27:57.418Z,1.60
2022-11-09T08:30:24.733Z,1.65
2022-11-09T08:32:51.497Z,2.35
2022-11-09T08:35:22.893Z,2.33
2022-11-09T08:37:53.268Z,2.55
2022-11-09T08:40:24.394Z,2.50
2022-11-09T08:42:52.801Z,2.17
2022-11-09T08:45:24.057Z,2.78
2022-11-09T08:47:58.064Z,1.80
2022-11-09T08:50:24.504Z,2.65
2022-11-09T08:52:53.078Z,1.70
2022-11-09T08:55:19.920Z,2.25
2022-11-09T08:57:46.374Z,2.28
2022-11-09T09:00:13.569Z,2.25
2022-11-09T09:02:40.398Z,2.28
2022-11-09T09:05:07.226Z,1.25
2022-11-09T09:07:33.636Z,2.10
2022-11-09T09:10:00.072Z,2.70
2022-11-09T09:12:26.549Z,1.50
2022-11-09T09:14:53.001Z,2.03
2022-11-09T09:17:19.471Z,2.75
2022-11-09T09:19:50.146Z,2.88
2022-11-09T09:22:16.906Z,3.03
2022-11-09T09:24:43.389Z,2.50
2022-11-09T09:27:09.836Z,2.13
2022-11-09T09:29:40.649Z,2.53
2022-11-09T09:32:07.112Z,2.35
2022-11-09T09:34:33.569Z,2.65
2022-11-09T09:37:00.001Z,3.17
2022-11-09T09:39:26.571Z,2.17
2022-11-09T09:41:55.655Z,2.00
2022-11-09T09:44:25.097Z,2.40
2022-11-09T09:47:06.964Z,2.10
2022-11-09T09:49:44.184Z,2.05
2022-11-09T09:52:16.503Z,2.00
2022-11-09T09:54:53.633Z,2.92
2022-11-09T09:57:24.782Z,2.00
2022-11-09T09:59:54.787Z,2.20
2022-11-09T10:02:34.725Z,2.90
2022-11-09T10:05:11.965Z,2.75
2022-11-09T10:07:50.335Z,2.97
2022-11-09T10:10:27.268Z,3.00
2022-11-09T10:13:22.290Z,2.22
2022-11-09T10:16:09.867Z,3.22
2022-11-09T10:19:22.017Z,2.30
2022-11-09T10:22:02.300Z,2.08
2022-11-09T10:24:31.737Z,3.30
2022-11-09T10:27:00.501Z,2.58
2022-11-09T10:29:37.758Z,2.65
2022-11-09T10:32:19.119Z,2.05
2022-11-09T10:34:51.519Z,1.63
2022-11-09T10:37:25.731Z,2.58
2022-11-09T10:40:09.625Z,1.70
2022-11-09T10:42:58.428Z,2.30
2022-11-09T10:45:45.404Z,2.30
2022-11-09T10:48:39.680Z,2.17
2022-11-09T10:51:50.961Z,3.15
2022-11-09T10:54:38.022Z,2.15
2022-11-09T10:57:24.760Z,2.47
2022-11-09T11:00:21.848Z,2.28
2022-11-09T11:03:19.472Z,2.08
2022-11-09T11:06:31.291Z,2.45
2022-11-09T11:09:20.346Z,2.40
2022-11-09T11:12:20.295Z,2.45
2022-11-09T11:15:25.257Z,2.50
2022-11-09T11:18:21.939Z,1.95
2022-11-09T11:21:18.679Z,2.30
2022-11-09T11:24:20.487Z,2.05
2022-11-09T11:27:16.747Z,2.05
2022-11-09T11:30:28.371Z,2.67
2022-11-09T11:33:19.029Z,0.73
2022-11-09T11:36:50.312Z,2.03
2022-11-09T11:39:59.598Z,2.78
2022-11-09T11:43:35.382Z,2.58
2022-11-09T11:46:47.153Z,1.98
2022-11-09T11:49:45.725Z,2.35
2022-11-09T11:52:51.903Z,2.00
2022-11-09T11:55:54.847Z,2.72
2022-11-09T11:58:42.431Z,2.40
2022-11-09T12:01:36.342Z,2.08
2022-11-09T12:04:55.031Z,2.53
2022-11-09T12:07:43.419Z,2.67
2022-11-09T12:10:49.996Z,2.70
2022-11-09T12:13:55.008Z,1.85
2022-11-09T12:16:52.022Z,2.35
2022-11-09T12:19:56.185Z,2.25
2022-11-09T12:23:28.591Z,2.38
2022-11-09T12:27:10.771Z,2.50
2022-11-09T12:30:14.487Z,2.15
2022-11-09T12:33:05.492Z,1.98
2022-11-09T12:35:56.500Z,2.17
2022-11-09T12:39:01.821Z,1.90
2022-11-09T12:41:48.771Z,1.90
2022-11-09T12:44:42.329Z,2.10
2022-11-09T12:47:34.424Z,1.67
2022-11-09T12:50:23.391Z,1.95
2022-11-09T12:53:09.095Z,1.45
2022-11-09T12:56:07.742Z,1.60
2022-11-09T12:58:52.710Z,1.58
2022-11-09T13:01:44.664Z,1.35
2022-11-09T13:04:30.421Z,1.80
2022-11-09T13:07:27.939Z,1.60
2022-11-09T13:10:34.529Z,1.35
2022-11-09T13:13:27.029Z,1.50
2022-11-09T13:16:32.096Z,2.00
2022-11-09T13:19:37.602Z,1.33
2022-11-09T13:22:23.024Z,1.13
2022-11-09T13:25:44.171Z,1.70
2022-11-09T13:28:32.180Z,1.60
2022-11-09T13:31:55.922Z,1.80
2022-11-09T13:35:02.843Z,1.13
2022-11-09T13:37:55.140Z,1.17
2022-11-09T13:40:48.463Z,1.23
2022-11-09T13:46:27.712Z,1.15
2022-11-09T13:49:40.827Z,1.60
2022-11-09T13:52:43.851Z,1.38
2022-11-09T13:55:35.410Z,1.45
2022-11-09T13:58:37.256Z,1.60
2022-11-09T14:01:34.313Z,1.42
2022-11-09T14:04:33.935Z,1.80
2022-11-09T14:07:27.669Z,1.45
2022-11-09T14:10:33.524Z,1.77
2022-11-09T14:14:02.257Z,1.33
2022-11-09T14:17:09.567Z,1.80
2022-11-09T14:20:17.608Z,1.58
2022-11-09T14:23:02.726Z,1.38
2022-11-09T14:25:51.666Z,1.83
2022-11-09T14:28:37.266Z,1.58
2022-11-09T14:31:22.337Z,1.50
2022-11-09T14:34:15.816Z,1.63
2022-11-09T14:37:04.903Z,1.38
2022-11-09T14:39:53.019Z,1.20
2022-11-09T14:42:45.924Z,1.63
2022-11-09T14:45:31.263Z,1.93
2022-11-09T14:48:21.226Z,1.50
2022-11-09T14:51:11.997Z,1.65
2022-11-09T14:53:59.237Z,1.42
2022-11-09T14:56:45.911Z,1.40
2022-11-09T14:59:34.348Z,1.52
2022-11-09T15:02:21.755Z,2.03
2022-11-09T15:05:07.423Z,2.08
2022-11-09T15:07:52.776Z,1.45
2022-11-09T15:10:38.327Z,1.88
2022-11-09T15:13:33.528Z,1.92
2022-11-09T15:16:24.463Z,1.75
2022-11-09T15:19:24.705Z,2.30
2022-11-09T15:22:35.170Z,2.38
2022-11-09T15:25:41.327Z,2.63
2022-11-09T15:28:28.921Z,2.00
2022-11-09T15:31:19.306Z,1.85
2022-11-09T15:34:26.000Z,1.90
2022-11-09T15:37:19.907Z,2.15
2022-11-09T15:40:12.395Z,1.52
2022-11-09T15:42:57.449Z,2.63
2022-11-09T15:45:42.647Z,2.67
2022-11-09T15:48:28.064Z,1.98
2022-11-09T15:51:14.269Z,2.53
2022-11-09T15:53:59.311Z,3.08
2022-11-09T15:56:44.473Z,2.67
2022-11-09T15:59:29.567Z,2.83
2022-11-09T16:02:19.015Z,3.10
2022-11-09T16:05:04.521Z,2.33
2022-11-09T16:07:51.303Z,2.88
2022-11-09T16:10:40.784Z,2.55
2022-11-09T16:13:25.496Z,2.47
2022-11-09T16:16:13.582Z,2.65
2022-11-09T16:18:59.004Z,2.60
2022-11-09T16:21:43.938Z,2.83
2022-11-09T16:24:29.587Z,3.58
2022-11-09T16:27:35.329Z,3.72
2022-11-09T16:30:20.393Z,2.42
2022-11-09T16:33:05.354Z,2.42
2022-11-09T16:35:50.521Z,2.85
2022-11-09T16:38:41.729Z,3.08
2022-11-09T16:41:26.972Z,2.75
2022-11-09T16:44:14.567Z,2.80
2022-11-09T16:47:02.958Z,2.22
2022-11-09T16:49:50.453Z,2.40
2022-11-09T16:52:35.447Z,2.20
2022-11-09T16:55:20.678Z,2.70
2022-11-09T16:58:05.554Z,2.53
2022-11-09T17:03:57.492Z,2.38
2022-11-09T17:06:44.812Z,3.92
2022-11-09T17:09:33.906Z,2.72
2022-11-09T17:12:19.082Z,2.65
2022-11-09T17:15:04.636Z,2.30
2022-11-09T17:17:50.039Z,2.28
2022-11-09T17:20:41.359Z,2.80
2022-11-09T17:23:26.475Z,3.38
2022-11-09T17:26:12.123Z,3.03
2022-11-09T17:28:56.857Z,3.20
2022-11-09T17:31:42.217Z,2.83
2022-11-09T17:34:27.043Z,2.83
2022-11-09T17:37:12.151Z,2.80
2022-11-09T17:39:57.358Z,3.20
2022-11-09T17:42:42.861Z,2.80
2022-11-09T17:45:28.075Z,2.30
2022-11-09T17:48:13.171Z,2.53
2022-11-09T17:50:59.212Z,2.92
2022-11-09T17:53:45.025Z,3.42
2022-11-09T17:56:31.782Z,2.72
2022-11-09T17:59:16.897Z,2.63
2022-11-09T18:02:01.750Z,2.55
2022-11-09T18:05:06.359Z,2.10
2022-11-09T18:08:14.310Z,2.50
2022-11-09T18:11:19.883Z,2.35
2022-11-09T18:14:25.430Z,2.85
2022-11-09T18:17:30.867Z,2.05
2022-11-09T18:20:38.858Z,2.17
2022-11-09T18:23:45.764Z,2.33
2022-11-09T18:26:53.815Z,2.00
2022-11-09T18:29:59.511Z,3.15
2022-11-09T18:33:04.548Z,2.47
2022-11-09T18:36:15.522Z,2.22
2022-11-09T18:39:20.715Z,2.60
2022-11-09T18:42:26.296Z,2.05
2022-11-09T18:45:34.486Z,2.72
2022-11-09T18:48:40.407Z,2.10
2022-11-09T18:51:45.981Z,2.30
2022-11-09T18:54:51.660Z,3.05
2022-11-09T18:57:57.208Z,2.75
2022-11-09T19:01:07.128Z,2.13
2022-11-09T19:04:15.904Z,1.67
2022-11-09T19:07:21.236Z,2.40
2022-11-09T19:10:26.782Z,2.92
2022-11-09T19:13:32.105Z,2.58
2022-11-09T19:16:39.804Z,2.28
2022-11-09T19:19:45.122Z,2.00
2022-11-09T19:22:52.619Z,3.03
2022-11-09T19:25:57.787Z,3.47
2022-11-09T19:29:03.846Z,2.90
2022-11-09T19:32:09.355Z,2.65
2022-11-09T19:35:14.827Z,1.85
2022-11-09T19:38:20.683Z,2.50
2022-11-09T19:41:27.201Z,2.75
2022-11-09T19:44:37.436Z,2.40
2022-11-09T19:47:42.788Z,2.55
2022-11-09T19:50:49.899Z,2.70
2022-11-09T19:53:56.675Z,2.60
2022-11-09T19:57:02.071Z,3.13
2022-11-09T20:00:08.110Z,2.88
2022-11-09T20:03:13.252Z,3.50
2022-11-09T20:06:20.052Z,3.72
2022-11-09T20:09:25.196Z,2.85
2022-11-09T20:12:49.296Z,3.53
2022-11-09T20:15:54.852Z,3.33
2022-11-09T20:19:02.123Z,2.60
2022-11-09T20:22:07.365Z,2.33
2022-11-09T20:25:12.586Z,2.60
2022-11-09T20:28:20.803Z,3.08
2022-11-09T20:31:26.221Z,3.22
2022-11-09T20:34:31.837Z,3.65
2022-11-09T20:37:37.536Z,3.38
2022-11-09T20:40:43.048Z,2.78
2022-11-09T20:43:48.361Z,2.80
2022-11-09T20:46:53.894Z,3.28
2022-11-09T20:49:59.207Z,2.85
2022-11-09T20:53:04.527Z,2.70
2022-11-09T20:56:09.827Z,2.42
2022-11-09T20:59:15.884Z,2.72
2022-11-09T21:02:23.937Z,3.25
2022-11-09T21:05:29.239Z,2.45
2022-11-09T21:08:37.778Z,2.72
2022-11-09T21:12:03.197Z,2.40
2022-11-09T21:15:09.295Z,3.20
2022-11-09T21:18:15.125Z,3.10
2022-11-09T21:21:23.672Z,2.78
2022-11-09T21:24:48.555Z,1.55
2022-11-09T21:28:12.745Z,2.15
2022-11-09T21:34:25.713Z,2.65
2022-11-09T21:37:33.455Z,1.80
2022-11-09T21:40:38.832Z,2.00
2022-11-09T21:43:46.360Z,1.95
2022-11-09T21:46:51.555Z,1.95
2022-11-09T21:49:56.828Z,1.67
2022-11-09T21:53:02.447Z,2.13
2022-11-09T21:56:08.539Z,1.70
2022-11-09T21:59:14.235Z,1.33
2022-11-09T22:02:19.722Z,1.58
2022-11-09T22:05:25.240Z,1.70
2022-11-09T22:08:33.167Z,1.55
2022-11-09T22:11:59.752Z,1.80
2022-11-09T22:15:24.800Z,1.27
2022-11-09T22:18:49.972Z,1.08
2022-11-09T22:21:55.363Z,1.38
2022-11-09T22:25:00.672Z,1.00
2022-11-09T22:28:05.973Z,1.38
2022-11-09T22:31:11.837Z,0.88
2022-11-09T22:34:17.420Z,1.50
2022-11-09T22:37:22.725Z,1.73
2022-11-09T22:40:30.344Z,0.98
2022-11-09T22:43:36.937Z,1.27
2022-11-09T22:46:42.120Z,1.40
2022-11-09T22:49:47.254Z,1.33
2022-11-09T22:53:00.837Z,1.33
2022-11-09T22:56:12.946Z,1.20
2022-11-09T22:59:18.450Z,1.60
2022-11-09T23:02:23.609Z,0.90
2022-11-09T23:05:28.947Z,1.50
2022-11-09T23:08:38.352Z,1.52
2022-11-09T23:11:43.807Z,1.73
2022-11-09T23:15:04.270Z,1.30
2022-11-09T23:18:44.942Z,1.42
2022-11-09T23:21:50.159Z,1.65
2022-11-09T23:25:14.199Z,1.65
2022-11-09T23:28:20.178Z,1.70
2022-11-09T23:31:26.898Z,1.05
2022-11-09T23:34:34.418Z,2.22
2022-11-09T23:37:40.015Z,1.00
2022-11-09T23:40:47.888Z,0.70
2022-11-09T23:43:56.261Z,1.50
2022-11-09T23:47:01.817Z,1.20
2022-11-09T23:50:07.678Z,1.35
2022-11-09T23:53:13.054Z,1.35
2022-11-09T23:56:19.175Z,0.77
2022-11-09T23:59:26.686Z,1.17
